METAR Data
IDs: Format: Raw Decoded Include TAF

Data at: 2218 UTC 02 Aug 2021

LIRZ 022150Z AUTO 05005KT 9999 NCD 19/09 Q1016